KTUP/TUP METAR and TAF weather

Enter ICAO airport designator
Station Type Date Time Source
KTUP METAR 2018/12/15 21:53 UTC NOAA

KTUP 152153Z VRB03KT 10SM OVC009 09/07 A2997 RMK AO2 SLP149 T00940072 $


Station Type Date Time Source
KTUP Decoded METAR 2018/12/15 21:53 UTC NOAA

TUPELO REGIONAL AIRPORT, MS, United States (KTUP) 34-16N 88-46W 105M
Dec 15, 2018 - 04:53 PM EST / 2018.12.15 2153 UTC
Wind: Variable at 3 MPH (3 KT):0
Visibility: 10 mile(s):0
Sky conditions: overcast
Temperature: 48.9 F (9.4 C)
Dew Point: 45.0 F (7.2 C)
Relative Humidity: 86%
Pressure (altimeter): 29.97 in. Hg (1014 hPa)
ob: KTUP 152153Z VRB03KT 10SM OVC009 09/07 A2997 RMK AO2 SLP149 T00940072
cycle: 22

Station Type Date Time Source
KTUP TAF 2018/12/15 18:33 UTC NOAA

TAF KTUP 151731Z 1518/1618 27008KT 6SM BR VCSH OVC004
FM152000 27008KT 4SM BR VCSH OVC005
TEMPO 1523/1603 2SM -DZ BR OVC003
FM160400 29007KT 6SM BR OVC004
FM160900 33008KT P6SM OVC007
FM161500 36006KT P6SM SCT007


Example: see airport list